createdAt,value
2022-08-08T00:00:52.729Z,99944.34
2022-08-08T00:04:16.059Z,99946.66
2022-08-08T00:07:48.198Z,99939.34
2022-08-08T00:11:17.294Z,99934.31
2022-08-08T00:14:48.179Z,99926.88
2022-08-08T00:18:06.758Z,99924.94
2022-08-08T00:21:11.375Z,99939.47
2022-08-08T00:24:24.065Z,99952.16
2022-08-08T00:27:34.741Z,99953.25
2022-08-08T00:30:56.082Z,99955.25
2022-08-08T00:35:04.182Z,99949.47
2022-08-08T00:38:51.484Z,99943.28
2022-08-08T00:42:38.858Z,99938.41
2022-08-08T00:46:21.696Z,99929.84
2022-08-08T00:50:20.396Z,99948.34
2022-08-08T00:54:13.842Z,99945.75
2022-08-08T00:57:45.020Z,99938.16
2022-08-08T01:01:19.795Z,99922.13
2022-08-08T01:05:58.281Z,99937.44
2022-08-08T01:09:36.336Z,99933.00
2022-08-08T01:13:43.754Z,99936.69
2022-08-08T01:17:19.914Z,99937.13
2022-08-08T01:21:14.792Z,99943.56
2022-08-08T01:24:58.822Z,99955.41
2022-08-08T01:28:17.917Z,99956.00
2022-08-08T01:32:12.852Z,99957.91
2022-08-08T01:35:40.469Z,99960.84
2022-08-08T01:39:02.781Z,99961.59
2022-08-08T01:42:36.067Z,99963.75
2022-08-08T01:45:57.651Z,99955.03
2022-08-08T01:49:57.968Z,99950.81
2022-08-08T01:55:16.259Z,99951.69
2022-08-08T01:57:10.736Z,99950.16
2022-08-08T02:00:32.174Z,99961.59
2022-08-08T02:03:58.101Z,99962.16
2022-08-08T02:07:22.435Z,99955.34
2022-08-08T02:10:54.444Z,99952.34
2022-08-08T02:14:05.119Z,99958.69
2022-08-08T02:17:54.552Z,99961.16
2022-08-08T02:21:23.464Z,99962.88
2022-08-08T02:25:15.124Z,99961.13
2022-08-08T02:28:59.348Z,99959.97
2022-08-08T02:32:32.677Z,99956.16
2022-08-08T02:36:05.579Z,99955.16
2022-08-08T02:39:59.753Z,99953.44
2022-08-08T02:44:39.152Z,99948.50
2022-08-08T02:47:55.140Z,99950.00
2022-08-08T02:51:55.120Z,99969.19
2022-08-08T02:55:03.887Z,99971.75
2022-08-08T02:58:37.114Z,99978.88
2022-08-08T03:02:20.050Z,99976.34
2022-08-08T03:05:55.601Z,99974.19
2022-08-08T03:09:51.893Z,99981.13
2022-08-08T03:13:07.442Z,99986.22
2022-08-08T03:16:49.879Z,99991.28
2022-08-08T03:20:05.563Z,99980.78
2022-08-08T03:23:17.589Z,99979.44
2022-08-08T03:26:30.648Z,99981.41
2022-08-08T03:29:56.030Z,99982.38
2022-08-08T03:33:54.590Z,99970.31
2022-08-08T03:36:43.874Z,99956.84
2022-08-08T03:40:00.009Z,99940.84
2022-08-08T03:43:16.486Z,99949.41
2022-08-08T03:46:25.293Z,99946.09
2022-08-08T03:49:59.719Z,99960.28
2022-08-08T03:52:50.629Z,99953.69
2022-08-08T03:55:57.550Z,99965.69
2022-08-08T03:59:01.071Z,99971.06
2022-08-08T04:02:23.065Z,99961.06
2022-08-08T04:05:30.635Z,99948.63
2022-08-08T04:08:41.053Z,99955.59
2022-08-08T04:12:00.522Z,99967.94
2022-08-08T04:15:22.550Z,99954.16
2022-08-08T04:18:38.216Z,99954.09
2022-08-08T04:21:47.973Z,99963.84
2022-08-08T04:24:52.509Z,99961.69
2022-08-08T04:28:02.302Z,99965.63
2022-08-08T04:31:56.894Z,99967.84
2022-08-08T04:34:49.508Z,99969.50
2022-08-08T04:38:05.635Z,99974.25
2022-08-08T04:41:17.855Z,99980.50
2022-08-08T04:44:23.904Z,99976.22
2022-08-08T04:47:29.570Z,99980.34
2022-08-08T04:50:38.352Z,99992.47
2022-08-08T04:54:27.390Z,100006.44
2022-08-08T04:57:07.448Z,100007.97
2022-08-08T05:00:13.098Z,99999.72
2022-08-08T05:04:07.731Z,99995.19
2022-08-08T05:06:45.342Z,100004.00
2022-08-08T05:09:47.930Z,100013.09
2022-08-08T05:13:01.549Z,100010.50
2022-08-08T05:16:51.607Z,100018.25
2022-08-08T05:20:11.041Z,100022.63
2022-08-08T05:22:53.599Z,100023.19
2022-08-08T05:26:00.192Z,100021.06
2022-08-08T05:29:06.120Z,100028.00
2022-08-08T05:32:12.866Z,100024.53
2022-08-08T05:35:16.875Z,100041.13
2022-08-08T05:38:30.707Z,100044.09
2022-08-08T05:41:54.658Z,100049.94
2022-08-08T05:45:00.590Z,100050.00
2022-08-08T05:48:12.303Z,100050.59
2022-08-08T05:51:17.818Z,100054.75
2022-08-08T05:54:28.214Z,100044.69
2022-08-08T05:58:04.236Z,100048.03
2022-08-08T06:01:07.033Z,100058.97
2022-08-08T06:04:13.742Z,100058.22
2022-08-08T06:07:16.627Z,100062.88
2022-08-08T06:10:24.514Z,100062.13
2022-08-08T06:13:35.775Z,100065.75
2022-08-08T06:16:45.820Z,100068.44
2022-08-08T06:20:11.793Z,100057.22
2022-08-08T06:23:15.943Z,100069.59
2022-08-08T06:26:44.032Z,100071.47
2022-08-08T06:30:11.832Z,100056.00
2022-08-08T06:33:36.832Z,100067.34
2022-08-08T06:36:53.761Z,100070.38
2022-08-08T06:39:57.889Z,100060.41
2022-08-08T06:43:09.770Z,100054.50
2022-08-08T06:46:26.178Z,100059.97
2022-08-08T06:49:55.484Z,100065.19
2022-08-08T06:52:55.588Z,100064.28
2022-08-08T06:56:02.429Z,100059.75
2022-08-08T06:59:12.100Z,100056.19
2022-08-08T07:02:29.152Z,100061.56
2022-08-08T07:05:40.759Z,100049.81
2022-08-08T07:08:47.630Z,100056.78
2022-08-08T07:11:55.574Z,100057.81
2022-08-08T07:15:31.840Z,100056.59
2022-08-08T07:18:57.594Z,100055.63
2022-08-08T07:22:11.982Z,100062.09
2022-08-08T07:25:29.407Z,100051.78
2022-08-08T07:28:34.606Z,100057.94
2022-08-08T07:31:40.209Z,100054.84
2022-08-08T07:34:59.270Z,100062.91
2022-08-08T07:38:18.319Z,100069.75
2022-08-08T07:42:04.099Z,100074.72
2022-08-08T07:44:59.572Z,100077.06
2022-08-08T07:48:05.441Z,100069.34
2022-08-08T07:51:23.264Z,100071.84
2022-08-08T07:55:14.491Z,100072.69
2022-08-08T07:58:26.649Z,100079.03
2022-08-08T08:02:34.596Z,100077.28
2022-08-08T08:04:55.721Z,100072.34
2022-08-08T08:08:27.908Z,100079.38
2022-08-08T08:11:38.295Z,100083.44
2022-08-08T08:15:05.448Z,100081.88
2022-08-08T08:18:14.121Z,100083.66
2022-08-08T08:21:19.036Z,100086.31
2022-08-08T08:24:30.356Z,100072.56
2022-08-08T08:27:36.391Z,100085.00
2022-08-08T08:30:39.421Z,100071.78
2022-08-08T08:33:43.629Z,100071.44
2022-08-08T08:36:51.516Z,100087.75
2022-08-08T08:40:01.538Z,100085.81
2022-08-08T08:43:17.150Z,100085.94
2022-08-08T08:46:25.832Z,100087.72
2022-08-08T08:49:33.506Z,100091.00
2022-08-08T08:52:38.215Z,100081.63
2022-08-08T08:56:01.301Z,100098.56
2022-08-08T08:59:05.351Z,100081.25
2022-08-08T09:02:20.860Z,100090.25
2022-08-08T09:05:29.161Z,100086.56
2022-08-08T09:08:49.840Z,100099.97
2022-08-08T09:12:01.437Z,100087.19
2022-08-08T09:15:07.498Z,100083.00
2022-08-08T09:18:18.145Z,100092.44
2022-08-08T09:22:00.316Z,100086.97
2022-08-08T09:24:43.623Z,100088.81
2022-08-08T09:27:58.003Z,100086.50
2022-08-08T09:31:13.981Z,100100.56
2022-08-08T09:34:31.735Z,100092.25
2022-08-08T09:38:01.228Z,100093.22
2022-08-08T09:41:08.956Z,100094.97
2022-08-08T09:44:55.719Z,100078.59
2022-08-08T09:48:04.519Z,100077.84
2022-08-08T09:51:16.038Z,100063.97
2022-08-08T09:54:36.995Z,100073.50
2022-08-08T09:57:46.236Z,100071.97
2022-08-08T10:00:53.386Z,100067.72
2022-08-08T10:04:02.421Z,100062.56
2022-08-08T10:07:10.592Z,100045.84
2022-08-08T10:10:12.859Z,100057.69
2022-08-08T10:13:32.389Z,100061.50
2022-08-08T10:16:39.502Z,100058.81
2022-08-08T10:19:57.278Z,100046.41
2022-08-08T10:23:02.399Z,100057.19
2022-08-08T10:26:04.839Z,100062.00
2022-08-08T10:30:01.386Z,100044.91
2022-08-08T10:33:06.199Z,100050.28
2022-08-08T10:36:22.503Z,100055.34
2022-08-08T10:39:42.953Z,100054.09
2022-08-08T10:42:48.201Z,100048.63
2022-08-08T10:45:56.222Z,100048.09
2022-08-08T10:49:00.579Z,100043.75
2022-08-08T10:52:03.134Z,100061.97
2022-08-08T10:55:10.964Z,100043.38
2022-08-08T10:58:15.506Z,100054.66
2022-08-08T11:01:20.541Z,100042.41
2022-08-08T11:04:29.802Z,100053.28
2022-08-08T11:08:30.660Z,100047.94
2022-08-08T11:12:00.086Z,100046.81
2022-08-08T11:14:31.936Z,100060.31
2022-08-08T11:18:00.148Z,100044.19
2022-08-08T11:20:56.237Z,100054.03
2022-08-08T11:24:02.153Z,100046.69
2022-08-08T11:27:19.160Z,100031.56
2022-08-08T11:30:24.881Z,100055.22
2022-08-08T11:33:51.011Z,100041.34
2022-08-08T11:36:52.648Z,100044.19
2022-08-08T11:40:01.654Z,100040.63
2022-08-08T11:43:06.091Z,100046.00
2022-08-08T11:46:14.024Z,100057.00
2022-08-08T11:49:20.484Z,100041.81
2022-08-08T11:52:27.369Z,100041.84
2022-08-08T11:55:35.325Z,100053.09
2022-08-08T11:58:38.564Z,100063.91
2022-08-08T12:01:40.874Z,100053.28
2022-08-08T12:04:42.967Z,100048.81
2022-08-08T12:07:53.542Z,100043.69
2022-08-08T12:11:02.321Z,100042.56
2022-08-08T12:14:05.428Z,100043.44
2022-08-08T12:17:10.721Z,100031.34
2022-08-08T12:20:14.576Z,100047.22
2022-08-08T12:23:40.229Z,100034.38
2022-08-08T12:26:51.896Z,100035.59
2022-08-08T12:30:02.024Z,100036.50
2022-08-08T12:33:07.886Z,100034.19
2022-08-08T12:36:14.742Z,100038.44
2022-08-08T12:40:01.105Z,100042.91
2022-08-08T12:42:49.548Z,100047.19
2022-08-08T12:45:59.393Z,100054.22
2022-08-08T12:49:24.886Z,100046.41
2022-08-08T12:52:31.874Z,100050.28
2022-08-08T12:55:56.658Z,100037.69
2022-08-08T12:58:57.869Z,100047.47
2022-08-08T13:02:01.704Z,100049.50
2022-08-08T13:05:15.692Z,100039.75
2022-08-08T13:08:33.246Z,100038.81
2022-08-08T13:12:26.771Z,100043.44
2022-08-08T13:15:16.406Z,100039.34
2022-08-08T13:18:24.644Z,100030.06
2022-08-08T13:21:48.539Z,100035.72
2022-08-08T13:24:52.971Z,100049.28
2022-08-08T13:27:56.473Z,100043.22
2022-08-08T13:31:00.139Z,100043.38
2022-08-08T13:34:06.428Z,100049.28
2022-08-08T13:37:11.113Z,100041.88
2022-08-08T13:40:27.482Z,100035.94
2022-08-08T13:43:30.200Z,100040.94
2022-08-08T13:46:32.425Z,100041.97
2022-08-08T13:50:36.845Z,100041.75
2022-08-08T13:52:56.839Z,100043.28
2022-08-08T13:56:05.263Z,100045.44
2022-08-08T13:59:07.415Z,100032.22
2022-08-08T14:02:32.826Z,100039.00
2022-08-08T14:05:35.450Z,100034.25
2022-08-08T14:08:45.842Z,100033.97
2022-08-08T14:11:48.585Z,100038.69
2022-08-08T14:14:50.960Z,100027.44
2022-08-08T14:18:36.745Z,100033.16
2022-08-08T14:21:22.413Z,100031.81
2022-08-08T14:24:32.347Z,100046.09
2022-08-08T14:27:40.536Z,100033.56
2022-08-08T14:30:47.711Z,100045.59
2022-08-08T14:33:57.491Z,100048.63
2022-08-08T14:37:06.349Z,100054.31
2022-08-08T14:40:12.416Z,100046.38
2022-08-08T14:43:31.202Z,100054.72
2022-08-08T14:46:37.030Z,100050.78
2022-08-08T14:50:05.802Z,100064.22
2022-08-08T14:53:10.247Z,100058.81
2022-08-08T14:56:15.995Z,100055.06
2022-08-08T14:59:21.449Z,100052.41
2022-08-08T15:02:33.901Z,100037.31
2022-08-08T15:05:52.514Z,100030.63
2022-08-08T15:08:57.857Z,100038.53
2022-08-08T15:12:00.768Z,100035.38
2022-08-08T15:15:09.057Z,100032.69
2022-08-08T15:18:11.810Z,100051.44
2022-08-08T15:21:13.903Z,100038.34
2022-08-08T15:24:17.008Z,100024.75
2022-08-08T15:27:57.840Z,100033.94
2022-08-08T15:30:41.391Z,100034.38
2022-08-08T15:33:58.586Z,100042.66
2022-08-08T15:37:04.920Z,100033.03
2022-08-08T15:40:11.272Z,100032.97
2022-08-08T15:43:18.793Z,100034.97
2022-08-08T15:46:37.633Z,100035.13
2022-08-08T15:49:41.355Z,100021.06
2022-08-08T15:52:43.863Z,100018.69
2022-08-08T15:55:47.377Z,100023.09
2022-08-08T15:58:52.271Z,100016.09
2022-08-08T16:01:59.988Z,100016.09
2022-08-08T16:05:04.032Z,100019.59
2022-08-08T16:08:13.056Z,100014.50
2022-08-08T16:13:11.481Z,100016.09
2022-08-08T16:14:37.486Z,100018.50
2022-08-08T16:18:05.892Z,100025.88
2022-08-08T16:21:02.483Z,100021.69
2022-08-08T16:24:10.088Z,100010.59
2022-08-08T16:27:18.038Z,100017.94
2022-08-08T16:30:32.630Z,100028.38
2022-08-08T16:33:40.204Z,100032.63
2022-08-08T16:36:43.518Z,100034.63
2022-08-08T16:40:00.759Z,100027.00
2022-08-08T16:43:03.806Z,100029.72
2022-08-08T16:46:43.485Z,100031.13
2022-08-08T16:49:38.489Z,100029.38
2022-08-08T16:55:00.888Z,100032.38
2022-08-08T16:56:08.816Z,100036.38
2022-08-08T16:59:16.622Z,100034.31
2022-08-08T17:02:38.814Z,100028.44
2022-08-08T17:05:44.980Z,100034.34
2022-08-08T17:08:47.516Z,100039.72
2022-08-08T17:11:54.629Z,100030.78
2022-08-08T17:14:59.929Z,100030.34
2022-08-08T17:18:03.271Z,100027.25
2022-08-08T17:21:10.483Z,100021.78
2022-08-08T17:24:26.905Z,100024.38
2022-08-08T17:27:46.108Z,100028.59
2022-08-08T17:30:49.407Z,100031.75
2022-08-08T17:34:52.813Z,100034.81
2022-08-08T17:37:14.748Z,100040.69
2022-08-08T17:40:17.062Z,100042.59
2022-08-08T17:43:19.263Z,100042.81
2022-08-08T17:46:41.898Z,100043.81
2022-08-08T17:49:44.903Z,100046.56
2022-08-08T17:52:53.320Z,100045.50
2022-08-08T17:56:05.487Z,100037.69
2022-08-08T17:59:09.508Z,100043.88
2022-08-08T18:02:18.942Z,100039.75
2022-08-08T18:05:24.159Z,100054.94
2022-08-08T18:08:41.088Z,100051.78
2022-08-08T18:11:49.168Z,100060.97
2022-08-08T18:14:53.737Z,100054.53
2022-08-08T18:18:09.164Z,100057.06
2022-08-08T18:21:24.888Z,100064.47
2022-08-08T18:24:37.151Z,100058.00
2022-08-08T18:27:43.323Z,100058.63
2022-08-08T18:30:47.163Z,100079.13
2022-08-08T18:34:11.154Z,100080.41
2022-08-08T18:37:17.848Z,100082.84
2022-08-08T18:40:35.643Z,100085.66
2022-08-08T18:43:43.054Z,100093.47
2022-08-08T18:46:55.636Z,100085.31
2022-08-08T18:50:02.570Z,100093.22
2022-08-08T18:53:05.067Z,100103.59
2022-08-08T18:56:07.341Z,100103.47
2022-08-08T18:59:11.304Z,100111.88
2022-08-08T19:02:28.713Z,100107.31
2022-08-08T19:05:38.629Z,100111.59
2022-08-08T19:08:48.155Z,100120.44
2022-08-08T19:11:51.088Z,100126.78
2022-08-08T19:14:56.804Z,100134.00
2022-08-08T19:18:30.655Z,100123.84
2022-08-08T19:21:29.038Z,100145.91
2022-08-08T19:24:38.924Z,100139.47
2022-08-08T19:27:56.847Z,100143.41
2022-08-08T19:31:08.967Z,100151.91
2022-08-08T19:34:36.742Z,100147.19
2022-08-08T19:37:43.199Z,100144.84
2022-08-08T19:40:55.616Z,100153.38
2022-08-08T19:44:03.436Z,100144.13
2022-08-08T19:47:15.639Z,100163.22
2022-08-08T19:50:17.967Z,100156.09
2022-08-08T19:53:52.176Z,100157.72
2022-08-08T19:56:48.926Z,100157.06
2022-08-08T19:59:51.306Z,100157.63
2022-08-08T20:02:53.603Z,100167.53
2022-08-08T20:06:14.087Z,100163.53
2022-08-08T20:09:23.163Z,100164.25
2022-08-08T20:12:32.786Z,100169.38
2022-08-08T20:15:52.538Z,100168.69
2022-08-08T20:18:59.890Z,100172.41
2022-08-08T20:22:05.204Z,100168.25
2022-08-08T20:25:24.704Z,100177.31
2022-08-08T20:28:33.077Z,100156.44
2022-08-08T20:31:47.241Z,100163.00
2022-08-08T20:35:00.761Z,100160.47
2022-08-08T20:38:03.791Z,100163.88
2022-08-08T20:41:17.823Z,100168.38
2022-08-08T20:44:21.655Z,100179.31
2022-08-08T20:47:28.862Z,100180.03
2022-08-08T20:50:38.851Z,100174.22
2022-08-08T20:53:58.934Z,100180.50
2022-08-08T20:57:11.773Z,100177.81
2022-08-08T21:00:19.773Z,100176.19
2022-08-08T21:03:21.852Z,100177.25
2022-08-08T21:06:52.568Z,100179.81
2022-08-08T21:10:02.412Z,100175.66
2022-08-08T21:13:09.931Z,100168.38
2022-08-08T21:16:20.501Z,100177.44
2022-08-08T21:19:44.091Z,100174.88
2022-08-08T21:22:48.684Z,100180.69
2022-08-08T21:25:53.437Z,100190.56
2022-08-08T21:29:00.505Z,100186.19
2022-08-08T21:32:04.829Z,100191.97
2022-08-08T21:36:19.231Z,100177.09
2022-08-08T21:38:29.940Z,100169.78
2022-08-08T21:41:43.199Z,100175.56
2022-08-08T21:44:58.263Z,100165.72
2022-08-08T21:48:16.270Z,100172.59
2022-08-08T21:54:18.597Z,100169.22
2022-08-08T21:54:54.914Z,100178.13
2022-08-08T21:58:09.522Z,100176.19
2022-08-08T22:01:27.938Z,100183.84
2022-08-08T22:04:37.683Z,100189.28
2022-08-08T22:07:41.285Z,100192.31
2022-08-08T22:10:45.265Z,100198.91
2022-08-08T22:13:51.562Z,100199.03
2022-08-08T22:16:54.444Z,100193.28
2022-08-08T22:20:12.962Z,100196.03
2022-08-08T22:23:19.279Z,100205.78
2022-08-08T22:26:29.366Z,100199.22
2022-08-08T22:29:59.055Z,100206.41
2022-08-08T22:32:54.979Z,100202.78
2022-08-08T22:36:04.484Z,100206.09
2022-08-08T22:39:19.779Z,100208.78
2022-08-08T22:42:27.046Z,100212.75
2022-08-08T22:45:33.687Z,100208.69
2022-08-08T22:48:37.778Z,100220.91
2022-08-08T22:51:42.454Z,100214.19
2022-08-08T22:54:58.947Z,100217.44
2022-08-08T22:58:06.743Z,100202.34
2022-08-08T23:02:01.190Z,100201.59
2022-08-08T23:04:33.589Z,100198.38
2022-08-08T23:07:49.303Z,100200.69
2022-08-08T23:10:57.848Z,100202.28
2022-08-08T23:14:07.851Z,100201.31
2022-08-08T23:17:13.894Z,100212.06
2022-08-08T23:20:19.803Z,100215.63
2022-08-08T23:23:22.018Z,100211.34
2022-08-08T23:26:25.467Z,100217.03
2022-08-08T23:29:29.763Z,100217.97
2022-08-08T23:32:33.436Z,100214.94
2022-08-08T23:36:06.711Z,100210.44
2022-08-08T23:38:58.522Z,100211.97
2022-08-08T23:42:01.761Z,100216.50
2022-08-08T23:45:04.730Z,100212.00
2022-08-08T23:49:07.962Z,100209.63
2022-08-08T23:52:04.292Z,100209.75
2022-08-08T23:54:53.338Z,100208.22
2022-08-08T23:58:02.654Z,100224.41
